createdAt,value
2023-01-22T14:45:00.825Z,3.68
2023-01-22T14:50:01.076Z,3.68
2023-01-22T14:55:00.669Z,3.68
2023-01-22T15:00:01.231Z,3.68
2023-01-22T15:05:00.699Z,3.68
2023-01-22T15:10:01.268Z,3.68
2023-01-22T15:15:01.158Z,3.68
2023-01-22T15:20:00.953Z,3.68
2023-01-22T15:40:00.751Z,3.42
2023-01-22T15:45:00.698Z,3.46
2023-01-22T15:50:00.653Z,3.46
2023-01-22T15:55:01.639Z,3.46
2023-01-22T16:00:00.845Z,3.46
2023-01-22T16:05:00.605Z,3.46
2023-01-22T16:10:00.778Z,3.46
2023-01-22T16:15:00.886Z,3.46
2023-01-22T16:20:00.515Z,3.46
2023-01-22T16:25:00.665Z,3.46
2023-01-22T16:30:01.688Z,3.46
2023-01-22T16:35:00.535Z,3.46
2023-01-22T16:40:00.672Z,3.31
2023-01-22T16:45:00.607Z,3.13
2023-01-22T16:50:00.996Z,3.13
2023-01-22T16:55:00.733Z,3.13
2023-01-22T17:00:01.032Z,3.13
2023-01-22T17:05:00.613Z,3.13
2023-01-22T17:10:00.853Z,3.13
2023-01-22T17:15:00.751Z,3.13
2023-01-22T17:20:00.612Z,2.99
2023-01-22T17:25:00.636Z,2.99
2023-01-22T17:30:00.827Z,2.99
2023-01-22T17:35:00.487Z,3.15
2023-01-22T22:05:01.369Z,3.15
2023-01-22T22:10:00.855Z,3.15
2023-01-22T22:15:00.826Z,3.18
2023-01-22T22:20:00.908Z,3.18
2023-01-22T22:25:00.848Z,3.18
2023-01-22T22:30:00.730Z,3.18
2023-01-22T22:35:00.925Z,3.18
2023-01-22T22:40:00.724Z,3.18
2023-01-22T22:45:00.760Z,3.18
2023-01-22T22:50:02.027Z,3.18
2023-01-22T22:55:00.716Z,3.18
2023-01-22T23:00:01.383Z,3.18
2023-01-22T23:05:00.974Z,3.18
2023-01-22T23:10:01.940Z,3.08
2023-01-22T23:15:00.746Z,3.08
2023-01-22T23:20:01.154Z,3.08
2023-01-22T23:25:00.800Z,3.08
2023-01-22T23:30:00.729Z,3.08
2023-01-22T23:35:00.896Z,3.06
2023-01-22T23:40:00.726Z,3.06
2023-01-22T23:45:00.850Z,3.02
2023-01-22T23:50:01.227Z,3.02
2023-01-22T23:55:00.739Z,3.02
